sensor_id;sensor_type;location;lat;lon;timestamp;P1;durP1;ratioP1;P2;durP2;ratioP2
22470;SDS011;11402;51.374;6.594;2023-09-19T00:02:00;21.20;;;4.05;;
22470;SDS011;11402;51.374;6.594;2023-09-19T00:04:30;14.98;;;3.35;;
22470;SDS011;11402;51.374;6.594;2023-09-19T00:06:57;13.98;;;2.83;;
22470;SDS011;11402;51.374;6.594;2023-09-19T00:09:23;15.05;;;3.28;;
22470;SDS011;11402;51.374;6.594;2023-09-19T00:11:52;12.25;;;3.53;;
22470;SDS011;11402;51.374;6.594;2023-09-19T00:14:18;15.40;;;3.95;;
22470;SDS011;11402;51.374;6.594;2023-09-19T00:16:44;18.67;;;3.70;;
22470;SDS011;11402;51.374;6.594;2023-09-19T00:19:11;18.35;;;3.63;;
22470;SDS011;11402;51.374;6.594;2023-09-19T00:21:39;16.48;;;3.17;;
22470;SDS011;11402;51.374;6.594;2023-09-19T00:24:06;11.88;;;3.05;;
22470;SDS011;11402;51.374;6.594;2023-09-19T00:26:33;20.05;;;3.45;;
22470;SDS011;11402;51.374;6.594;2023-09-19T00:29:00;15.40;;;3.15;;
22470;SDS011;11402;51.374;6.594;2023-09-19T00:33:59;14.90;;;3.22;;
22470;SDS011;11402;51.374;6.594;2023-09-19T00:36:29;18.08;;;3.50;;
22470;SDS011;11402;51.374;6.594;2023-09-19T00:38:55;17.25;;;3.22;;
22470;SDS011;11402;51.374;6.594;2023-09-19T00:41:21;21.90;;;3.83;;
22470;SDS011;11402;51.374;6.594;2023-09-19T00:43:48;18.67;;;3.28;;
22470;SDS011;11402;51.374;6.594;2023-09-19T00:46:18;20.13;;;4.03;;
22470;SDS011;11402;51.374;6.594;2023-09-19T00:48:44;17.88;;;3.05;;
22470;SDS011;11402;51.374;6.594;2023-09-19T00:51:11;18.80;;;3.65;;
22470;SDS011;11402;51.374;6.594;2023-09-19T00:53:38;20.30;;;3.38;;
22470;SDS011;11402;51.374;6.594;2023-09-19T00:56:04;17.25;;;3.40;;
22470;SDS011;11402;51.374;6.594;2023-09-19T00:58:31;19.52;;;3.08;;
22470;SDS011;11402;51.374;6.594;2023-09-19T01:00:58;22.73;;;3.63;;
22470;SDS011;11402;51.374;6.594;2023-09-19T01:03:24;18.55;;;3.63;;
22470;SDS011;11402;51.374;6.594;2023-09-19T01:05:51;16.95;;;3.70;;
22470;SDS011;11402;51.374;6.594;2023-09-19T01:08:17;14.48;;;3.47;;
22470;SDS011;11402;51.374;6.594;2023-09-19T01:10:49;18.27;;;3.42;;
22470;SDS011;11402;51.374;6.594;2023-09-19T01:13:21;15.18;;;3.08;;
22470;SDS011;11402;51.374;6.594;2023-09-19T01:26:27;27.73;;;3.20;;
22470;SDS011;11402;51.374;6.594;2023-09-19T01:31:54;13.50;;;3.20;;
22470;SDS011;11402;51.374;6.594;2023-09-19T01:34:23;22.30;;;3.60;;
22470;SDS011;11402;51.374;6.594;2023-09-19T01:36:51;18.80;;;3.40;;
22470;SDS011;11402;51.374;6.594;2023-09-19T01:39:17;17.05;;;3.30;;
22470;SDS011;11402;51.374;6.594;2023-09-19T01:41:56;16.70;;;3.28;;
22470;SDS011;11402;51.374;6.594;2023-09-19T01:44:29;13.00;;;3.25;;
22470;SDS011;11402;51.374;6.594;2023-09-19T01:46:57;22.13;;;3.75;;
22470;SDS011;11402;51.374;6.594;2023-09-19T01:49:32;19.45;;;3.60;;
22470;SDS011;11402;51.374;6.594;2023-09-19T01:52:05;18.80;;;3.35;;
22470;SDS011;11402;51.374;6.594;2023-09-19T01:54:40;19.65;;;3.92;;
22470;SDS011;11402;51.374;6.594;2023-09-19T01:57:09;16.05;;;2.90;;
22470;SDS011;11402;51.374;6.594;2023-09-19T01:59:41;22.63;;;3.92;;
22470;SDS011;11402;51.374;6.594;2023-09-19T02:02:09;18.20;;;3.45;;
22470;SDS011;11402;51.374;6.594;2023-09-19T02:04:35;20.88;;;3.10;;
22470;SDS011;11402;51.374;6.594;2023-09-19T02:07:02;19.17;;;3.85;;
22470;SDS011;11402;51.374;6.594;2023-09-19T02:09:29;15.10;;;3.33;;
22470;SDS011;11402;51.374;6.594;2023-09-19T02:11:55;20.35;;;3.70;;
22470;SDS011;11402;51.374;6.594;2023-09-19T02:14:21;18.33;;;3.45;;
22470;SDS011;11402;51.374;6.594;2023-09-19T02:16:47;19.70;;;3.42;;
22470;SDS011;11402;51.374;6.594;2023-09-19T02:19:14;20.98;;;3.40;;
22470;SDS011;11402;51.374;6.594;2023-09-19T02:21:40;14.82;;;2.95;;
22470;SDS011;11402;51.374;6.594;2023-09-19T02:24:07;18.85;;;3.60;;
22470;SDS011;11402;51.374;6.594;2023-09-19T02:26:33;16.67;;;3.50;;
22470;SDS011;11402;51.374;6.594;2023-09-19T02:29:02;15.35;;;3.20;;
22470;SDS011;11402;51.374;6.594;2023-09-19T02:31:29;19.23;;;3.38;;
22470;SDS011;11402;51.374;6.594;2023-09-19T02:33:55;16.30;;;3.35;;
22470;SDS011;11402;51.374;6.594;2023-09-19T02:36:21;11.80;;;2.80;;
22470;SDS011;11402;51.374;6.594;2023-09-19T02:38:48;18.02;;;3.40;;
22470;SDS011;11402;51.374;6.594;2023-09-19T02:41:14;13.23;;;2.95;;
22470;SDS011;11402;51.374;6.594;2023-09-19T02:43:40;16.38;;;2.92;;
22470;SDS011;11402;51.374;6.594;2023-09-19T02:46:07;16.90;;;2.90;;
22470;SDS011;11402;51.374;6.594;2023-09-19T02:48:34;19.92;;;3.75;;
22470;SDS011;11402;51.374;6.594;2023-09-19T02:51:01;26.27;;;3.85;;
22470;SDS011;11402;51.374;6.594;2023-09-19T02:53:28;15.27;;;3.55;;
22470;SDS011;11402;51.374;6.594;2023-09-19T02:55:56;16.17;;;3.35;;
22470;SDS011;11402;51.374;6.594;2023-09-19T02:58:24;20.60;;;3.30;;
22470;SDS011;11402;51.374;6.594;2023-09-19T03:00:50;19.95;;;3.22;;
22470;SDS011;11402;51.374;6.594;2023-09-19T03:03:16;19.23;;;3.55;;
22470;SDS011;11402;51.374;6.594;2023-09-19T03:05:42;17.20;;;3.40;;
22470;SDS011;11402;51.374;6.594;2023-09-19T03:08:12;18.05;;;3.20;;
22470;SDS011;11402;51.374;6.594;2023-09-19T03:10:40;14.90;;;2.60;;
22470;SDS011;11402;51.374;6.594;2023-09-19T03:13:06;18.05;;;3.28;;
22470;SDS011;11402;51.374;6.594;2023-09-19T03:15:34;16.67;;;3.17;;
22470;SDS011;11402;51.374;6.594;2023-09-19T03:18:03;16.33;;;3.58;;
22470;SDS011;11402;51.374;6.594;2023-09-19T03:20:30;19.77;;;3.70;;
22470;SDS011;11402;51.374;6.594;2023-09-19T03:22:56;22.35;;;3.15;;
22470;SDS011;11402;51.374;6.594;2023-09-19T03:25:22;13.98;;;2.63;;
22470;SDS011;11402;51.374;6.594;2023-09-19T03:27:49;21.00;;;3.60;;
22470;SDS011;11402;51.374;6.594;2023-09-19T03:30:15;23.17;;;3.50;;
22470;SDS011;11402;51.374;6.594;2023-09-19T03:32:47;12.43;;;2.88;;
22470;SDS011;11402;51.374;6.594;2023-09-19T03:35:15;19.00;;;3.45;;
22470;SDS011;11402;51.374;6.594;2023-09-19T03:37:41;15.07;;;3.45;;
22470;SDS011;11402;51.374;6.594;2023-09-19T03:40:08;18.65;;;3.35;;
22470;SDS011;11402;51.374;6.594;2023-09-19T03:42:37;12.88;;;2.75;;
22470;SDS011;11402;51.374;6.594;2023-09-19T03:45:03;18.77;;;3.00;;
22470;SDS011;11402;51.374;6.594;2023-09-19T03:47:30;15.75;;;3.35;;
22470;SDS011;11402;51.374;6.594;2023-09-19T03:49:56;15.40;;;3.42;;
22470;SDS011;11402;51.374;6.594;2023-09-19T03:52:22;14.98;;;3.10;;
22470;SDS011;11402;51.374;6.594;2023-09-19T03:54:50;19.75;;;3.25;;
22470;SDS011;11402;51.374;6.594;2023-09-19T03:57:16;19.40;;;3.80;;
22470;SDS011;11402;51.374;6.594;2023-09-19T03:59:45;15.88;;;3.33;;
22470;SDS011;11402;51.374;6.594;2023-09-19T04:02:12;22.10;;;3.53;;
22470;SDS011;11402;51.374;6.594;2023-09-19T04:04:47;16.33;;;3.10;;
22470;SDS011;11402;51.374;6.594;2023-09-19T04:07:13;16.67;;;3.10;;
22470;SDS011;11402;51.374;6.594;2023-09-19T04:09:39;17.27;;;3.50;;
22470;SDS011;11402;51.374;6.594;2023-09-19T04:12:05;18.10;;;3.45;;
22470;SDS011;11402;51.374;6.594;2023-09-19T04:14:31;18.05;;;3.42;;
22470;SDS011;11402;51.374;6.594;2023-09-19T04:16:57;17.80;;;3.65;;
22470;SDS011;11402;51.374;6.594;2023-09-19T04:19:23;13.27;;;2.90;;
22470;SDS011;11402;51.374;6.594;2023-09-19T04:21:49;17.15;;;3.50;;
22470;SDS011;11402;51.374;6.594;2023-09-19T04:24:15;13.93;;;3.00;;
22470;SDS011;11402;51.374;6.594;2023-09-19T04:26:41;16.92;;;2.97;;
22470;SDS011;11402;51.374;6.594;2023-09-19T04:29:07;18.10;;;3.03;;
22470;SDS011;11402;51.374;6.594;2023-09-19T04:31:36;18.30;;;3.35;;
22470;SDS011;11402;51.374;6.594;2023-09-19T04:34:03;15.70;;;3.60;;
22470;SDS011;11402;51.374;6.594;2023-09-19T04:36:29;14.90;;;2.95;;
22470;SDS011;11402;51.374;6.594;2023-09-19T04:38:55;14.77;;;3.13;;
22470;SDS011;11402;51.374;6.594;2023-09-19T04:41:21;14.13;;;3.35;;
22470;SDS011;11402;51.374;6.594;2023-09-19T04:43:47;15.65;;;3.05;;
22470;SDS011;11402;51.374;6.594;2023-09-19T04:46:15;17.20;;;2.92;;
22470;SDS011;11402;51.374;6.594;2023-09-19T04:48:42;17.52;;;3.15;;
22470;SDS011;11402;51.374;6.594;2023-09-19T04:51:08;17.60;;;3.72;;
22470;SDS011;11402;51.374;6.594;2023-09-19T04:53:35;17.02;;;3.80;;
22470;SDS011;11402;51.374;6.594;2023-09-19T04:56:02;19.70;;;4.28;;
22470;SDS011;11402;51.374;6.594;2023-09-19T04:58:28;21.85;;;3.55;;
22470;SDS011;11402;51.374;6.594;2023-09-19T05:00:55;18.08;;;3.58;;
22470;SDS011;11402;51.374;6.594;2023-09-19T05:03:21;12.25;;;3.22;;
22470;SDS011;11402;51.374;6.594;2023-09-19T05:05:47;16.88;;;3.47;;
22470;SDS011;11402;51.374;6.594;2023-09-19T05:08:13;22.42;;;3.90;;
22470;SDS011;11402;51.374;6.594;2023-09-19T05:10:40;19.13;;;3.55;;
22470;SDS011;11402;51.374;6.594;2023-09-19T05:13:06;20.30;;;3.72;;
22470;SDS011;11402;51.374;6.594;2023-09-19T05:15:33;15.48;;;3.60;;
22470;SDS011;11402;51.374;6.594;2023-09-19T05:18:00;19.70;;;3.35;;
22470;SDS011;11402;51.374;6.594;2023-09-19T05:20:26;21.75;;;3.47;;
22470;SDS011;11402;51.374;6.594;2023-09-19T05:23:07;16.05;;;3.47;;
22470;SDS011;11402;51.374;6.594;2023-09-19T05:25:34;12.15;;;3.30;;
22470;SDS011;11402;51.374;6.594;2023-09-19T05:28:04;16.55;;;3.25;;
22470;SDS011;11402;51.374;6.594;2023-09-19T05:30:34;20.98;;;3.63;;
22470;SDS011;11402;51.374;6.594;2023-09-19T05:33:09;18.73;;;3.25;;
22470;SDS011;11402;51.374;6.594;2023-09-19T05:35:35;17.77;;;3.47;;
22470;SDS011;11402;51.374;6.594;2023-09-19T05:38:04;19.92;;;3.42;;
22470;SDS011;11402;51.374;6.594;2023-09-19T05:40:33;18.60;;;3.45;;
22470;SDS011;11402;51.374;6.594;2023-09-19T05:43:00;19.05;;;3.55;;
22470;SDS011;11402;51.374;6.594;2023-09-19T05:45:27;18.42;;;3.40;;
22470;SDS011;11402;51.374;6.594;2023-09-19T05:47:53;14.93;;;3.22;;
22470;SDS011;11402;51.374;6.594;2023-09-19T05:50:26;16.13;;;3.15;;
22470;SDS011;11402;51.374;6.594;2023-09-19T05:52:52;14.52;;;2.97;;
22470;SDS011;11402;51.374;6.594;2023-09-19T05:55:19;14.43;;;3.45;;
22470;SDS011;11402;51.374;6.594;2023-09-19T05:57:51;15.43;;;3.55;;
22470;SDS011;11402;51.374;6.594;2023-09-19T06:00:18;18.38;;;3.95;;
22470;SDS011;11402;51.374;6.594;2023-09-19T06:02:48;17.65;;;3.25;;
22470;SDS011;11402;51.374;6.594;2023-09-19T06:05:14;19.80;;;3.75;;
22470;SDS011;11402;51.374;6.594;2023-09-19T06:07:40;18.13;;;3.15;;
22470;SDS011;11402;51.374;6.594;2023-09-19T06:10:07;21.98;;;3.35;;
22470;SDS011;11402;51.374;6.594;2023-09-19T06:12:37;18.17;;;3.38;;
22470;SDS011;11402;51.374;6.594;2023-09-19T06:15:04;16.88;;;3.28;;
22470;SDS011;11402;51.374;6.594;2023-09-19T06:17:40;20.25;;;3.67;;
22470;SDS011;11402;51.374;6.594;2023-09-19T06:20:06;20.08;;;3.20;;
22470;SDS011;11402;51.374;6.594;2023-09-19T06:22:40;19.05;;;3.97;;
22470;SDS011;11402;51.374;6.594;2023-09-19T06:25:07;19.30;;;3.33;;
22470;SDS011;11402;51.374;6.594;2023-09-19T06:27:33;20.20;;;4.22;;
22470;SDS011;11402;51.374;6.594;2023-09-19T06:30:01;14.75;;;3.13;;
22470;SDS011;11402;51.374;6.594;2023-09-19T06:32:28;19.02;;;2.92;;
22470;SDS011;11402;51.374;6.594;2023-09-19T06:34:54;23.02;;;3.42;;
22470;SDS011;11402;51.374;6.594;2023-09-19T06:37:20;14.68;;;3.05;;
22470;SDS011;11402;51.374;6.594;2023-09-19T06:39:47;17.35;;;2.88;;
22470;SDS011;11402;51.374;6.594;2023-09-19T06:42:14;27.20;;;3.72;;
22470;SDS011;11402;51.374;6.594;2023-09-19T06:44:42;18.98;;;3.45;;
22470;SDS011;11402;51.374;6.594;2023-09-19T06:47:08;17.85;;;3.10;;
22470;SDS011;11402;51.374;6.594;2023-09-19T06:49:35;20.13;;;3.20;;
22470;SDS011;11402;51.374;6.594;2023-09-19T06:52:01;21.70;;;3.83;;
22470;SDS011;11402;51.374;6.594;2023-09-19T06:54:27;21.15;;;3.35;;
22470;SDS011;11402;51.374;6.594;2023-09-19T06:56:56;18.50;;;3.92;;
22470;SDS011;11402;51.374;6.594;2023-09-19T06:59:23;19.65;;;3.60;;
22470;SDS011;11402;51.374;6.594;2023-09-19T07:01:50;19.95;;;3.75;;
22470;SDS011;11402;51.374;6.594;2023-09-19T07:04:16;21.13;;;4.40;;
22470;SDS011;11402;51.374;6.594;2023-09-19T07:06:44;18.98;;;3.60;;
22470;SDS011;11402;51.374;6.594;2023-09-19T07:09:11;24.38;;;3.85;;
22470;SDS011;11402;51.374;6.594;2023-09-19T07:11:37;27.58;;;4.05;;
22470;SDS011;11402;51.374;6.594;2023-09-19T07:14:03;27.13;;;3.60;;
22470;SDS011;11402;51.374;6.594;2023-09-19T07:16:30;21.70;;;3.88;;
22470;SDS011;11402;51.374;6.594;2023-09-19T07:18:56;22.63;;;3.25;;
22470;SDS011;11402;51.374;6.594;2023-09-19T07:21:23;21.42;;;3.35;;
22470;SDS011;11402;51.374;6.594;2023-09-19T07:23:49;15.88;;;3.58;;
22470;SDS011;11402;51.374;6.594;2023-09-19T07:26:16;17.02;;;3.15;;
22470;SDS011;11402;51.374;6.594;2023-09-19T07:28:42;18.70;;;3.83;;
22470;SDS011;11402;51.374;6.594;2023-09-19T07:31:08;15.43;;;3.45;;
22470;SDS011;11402;51.374;6.594;2023-09-19T07:33:35;22.25;;;3.42;;
22470;SDS011;11402;51.374;6.594;2023-09-19T07:36:01;19.70;;;4.00;;
22470;SDS011;11402;51.374;6.594;2023-09-19T07:38:27;19.83;;;3.10;;
22470;SDS011;11402;51.374;6.594;2023-09-19T07:40:53;24.48;;;2.90;;
22470;SDS011;11402;51.374;6.594;2023-09-19T07:43:20;19.88;;;3.15;;
22470;SDS011;11402;51.374;6.594;2023-09-19T07:45:46;27.48;;;4.15;;
22470;SDS011;11402;51.374;6.594;2023-09-19T07:48:13;17.45;;;2.88;;
22470;SDS011;11402;51.374;6.594;2023-09-19T07:50:40;22.15;;;3.72;;
22470;SDS011;11402;51.374;6.594;2023-09-19T07:53:08;19.98;;;3.40;;
22470;SDS011;11402;51.374;6.594;2023-09-19T07:55:34;19.98;;;3.63;;
22470;SDS011;11402;51.374;6.594;2023-09-19T07:58:00;19.02;;;3.90;;
22470;SDS011;11402;51.374;6.594;2023-09-19T08:00:28;16.23;;;3.20;;
22470;SDS011;11402;51.374;6.594;2023-09-19T08:02:54;21.00;;;3.03;;
22470;SDS011;11402;51.374;6.594;2023-09-19T08:05:20;18.05;;;3.42;;
22470;SDS011;11402;51.374;6.594;2023-09-19T08:07:47;21.33;;;3.65;;
22470;SDS011;11402;51.374;6.594;2023-09-19T08:10:13;18.08;;;3.67;;
22470;SDS011;11402;51.374;6.594;2023-09-19T08:12:41;18.73;;;3.30;;
22470;SDS011;11402;51.374;6.594;2023-09-19T08:15:13;17.67;;;3.15;;
22470;SDS011;11402;51.374;6.594;2023-09-19T08:17:40;23.92;;;3.58;;
22470;SDS011;11402;51.374;6.594;2023-09-19T08:20:06;18.67;;;2.90;;
22470;SDS011;11402;51.374;6.594;2023-09-19T08:22:32;20.42;;;3.70;;
22470;SDS011;11402;51.374;6.594;2023-09-19T08:24:58;23.45;;;3.58;;
22470;SDS011;11402;51.374;6.594;2023-09-19T08:27:24;22.05;;;3.85;;
22470;SDS011;11402;51.374;6.594;2023-09-19T08:29:53;17.25;;;3.53;;
22470;SDS011;11402;51.374;6.594;2023-09-19T08:32:18;17.42;;;3.30;;
22470;SDS011;11402;51.374;6.594;2023-09-19T08:34:49;17.38;;;3.10;;
22470;SDS011;11402;51.374;6.594;2023-09-19T08:37:15;23.40;;;3.35;;
22470;SDS011;11402;51.374;6.594;2023-09-19T08:39:42;16.13;;;3.20;;
22470;SDS011;11402;51.374;6.594;2023-09-19T08:42:08;16.75;;;3.10;;
22470;SDS011;11402;51.374;6.594;2023-09-19T08:44:36;22.13;;;4.38;;
22470;SDS011;11402;51.374;6.594;2023-09-19T08:47:09;17.88;;;2.90;;
22470;SDS011;11402;51.374;6.594;2023-09-19T08:49:41;21.98;;;3.38;;
22470;SDS011;11402;51.374;6.594;2023-09-19T08:52:27;20.20;;;3.40;;
22470;SDS011;11402;51.374;6.594;2023-09-19T08:54:58;18.03;;;3.53;;
22470;SDS011;11402;51.374;6.594;2023-09-19T08:57:30;15.90;;;3.25;;
22470;SDS011;11402;51.374;6.594;2023-09-19T09:00:01;17.73;;;3.20;;
22470;SDS011;11402;51.374;6.594;2023-09-19T09:02:31;20.70;;;3.85;;
22470;SDS011;11402;51.374;6.594;2023-09-19T09:04:59;21.60;;;3.10;;
22470;SDS011;11402;51.374;6.594;2023-09-19T09:07:25;23.00;;;3.30;;
22470;SDS011;11402;51.374;6.594;2023-09-19T09:09:52;23.63;;;3.80;;
22470;SDS011;11402;51.374;6.594;2023-09-19T09:12:18;14.38;;;3.03;;
22470;SDS011;11402;51.374;6.594;2023-09-19T09:14:47;17.10;;;3.50;;
22470;SDS011;11402;51.374;6.594;2023-09-19T09:17:16;21.63;;;3.65;;
22470;SDS011;11402;51.374;6.594;2023-09-19T09:19:45;17.92;;;3.63;;
22470;SDS011;11402;51.374;6.594;2023-09-19T09:22:13;18.65;;;3.78;;
22470;SDS011;11402;51.374;6.594;2023-09-19T09:24:58;19.02;;;3.50;;
22470;SDS011;11402;51.374;6.594;2023-09-19T09:27:23;14.18;;;2.90;;
22470;SDS011;11402;51.374;6.594;2023-09-19T09:29:50;16.50;;;3.08;;
22470;SDS011;11402;51.374;6.594;2023-09-19T09:32:17;15.20;;;3.25;;
22470;SDS011;11402;51.374;6.594;2023-09-19T09:34:51;31.90;;;4.20;;
22470;SDS011;11402;51.374;6.594;2023-09-19T09:37:18;13.23;;;3.17;;
22470;SDS011;11402;51.374;6.594;2023-09-19T09:39:49;19.00;;;3.25;;
22470;SDS011;11402;51.374;6.594;2023-09-19T09:42:32;17.63;;;3.90;;
22470;SDS011;11402;51.374;6.594;2023-09-19T09:45:13;19.73;;;3.85;;
22470;SDS011;11402;51.374;6.594;2023-09-19T09:47:47;23.95;;;3.63;;
22470;SDS011;11402;51.374;6.594;2023-09-19T09:50:30;17.30;;;3.22;;
22470;SDS011;11402;51.374;6.594;2023-09-19T09:53:19;18.65;;;2.97;;
22470;SDS011;11402;51.374;6.594;2023-09-19T09:58:31;18.48;;;3.15;;
22470;SDS011;11402;51.374;6.594;2023-09-19T10:01:13;21.75;;;3.58;;
22470;SDS011;11402;51.374;6.594;2023-09-19T10:03:43;14.50;;;2.72;;
22470;SDS011;11402;51.374;6.594;2023-09-19T10:06:13;16.15;;;4.28;;
22470;SDS011;11402;51.374;6.594;2023-09-19T10:09:04;14.68;;;3.13;;
22470;SDS011;11402;51.374;6.594;2023-09-19T10:12:00;22.25;;;3.65;;
22470;SDS011;11402;51.374;6.594;2023-09-19T10:14:33;18.63;;;3.70;;
22470;SDS011;11402;51.374;6.594;2023-09-19T10:17:03;17.73;;;3.25;;
22470;SDS011;11402;51.374;6.594;2023-09-19T10:19:37;18.42;;;3.50;;
22470;SDS011;11402;51.374;6.594;2023-09-19T10:22:11;14.57;;;3.10;;
22470;SDS011;11402;51.374;6.594;2023-09-19T10:24:45;17.30;;;3.03;;
22470;SDS011;11402;51.374;6.594;2023-09-19T10:27:15;16.98;;;4.63;;
22470;SDS011;11402;51.374;6.594;2023-09-19T10:29:42;16.50;;;3.03;;
22470;SDS011;11402;51.374;6.594;2023-09-19T10:32:12;14.63;;;3.25;;
22470;SDS011;11402;51.374;6.594;2023-09-19T10:34:43;14.02;;;3.20;;
22470;SDS011;11402;51.374;6.594;2023-09-19T10:37:12;18.88;;;3.40;;
22470;SDS011;11402;51.374;6.594;2023-09-19T10:39:40;16.50;;;3.95;;
22470;SDS011;11402;51.374;6.594;2023-09-19T10:42:10;13.80;;;3.42;;
22470;SDS011;11402;51.374;6.594;2023-09-19T10:44:42;15.82;;;3.47;;
22470;SDS011;11402;51.374;6.594;2023-09-19T10:47:10;12.93;;;3.58;;
22470;SDS011;11402;51.374;6.594;2023-09-19T10:49:42;18.90;;;3.10;;
22470;SDS011;11402;51.374;6.594;2023-09-19T10:52:11;24.48;;;4.18;;
22470;SDS011;11402;51.374;6.594;2023-09-19T10:54:45;15.63;;;3.50;;
22470;SDS011;11402;51.374;6.594;2023-09-19T10:57:20;18.17;;;2.75;;
22470;SDS011;11402;51.374;6.594;2023-09-19T11:00:04;14.48;;;2.85;;
22470;SDS011;11402;51.374;6.594;2023-09-19T11:11:58;19.27;;;2.97;;
22470;SDS011;11402;51.374;6.594;2023-09-19T11:30:43;19.05;;;3.75;;
22470;SDS011;11402;51.374;6.594;2023-09-19T11:33:18;16.20;;;3.22;;
22470;SDS011;11402;51.374;6.594;2023-09-19T11:36:06;14.30;;;2.60;;
22470;SDS011;11402;51.374;6.594;2023-09-19T11:43:47;15.75;;;3.28;;
22470;SDS011;11402;51.374;6.594;2023-09-19T11:46:15;12.02;;;2.50;;
22470;SDS011;11402;51.374;6.594;2023-09-19T11:48:43;15.75;;;3.35;;
22470;SDS011;11402;51.374;6.594;2023-09-19T11:51:13;16.85;;;2.90;;
22470;SDS011;11402;51.374;6.594;2023-09-19T11:53:44;14.52;;;3.20;;
22470;SDS011;11402;51.374;6.594;2023-09-19T11:56:13;17.33;;;3.35;;
22470;SDS011;11402;51.374;6.594;2023-09-19T11:58:45;15.82;;;3.10;;
22470;SDS011;11402;51.374;6.594;2023-09-19T12:01:12;14.68;;;3.17;;
22470;SDS011;11402;51.374;6.594;2023-09-19T12:03:41;14.93;;;2.60;;
22470;SDS011;11402;51.374;6.594;2023-09-19T12:08:39;13.82;;;2.50;;
22470;SDS011;11402;51.374;6.594;2023-09-19T12:11:15;17.27;;;3.15;;
22470;SDS011;11402;51.374;6.594;2023-09-19T12:13:44;13.43;;;2.83;;
22470;SDS011;11402;51.374;6.594;2023-09-19T12:16:15;17.00;;;3.25;;
22470;SDS011;11402;51.374;6.594;2023-09-19T12:18:42;12.00;;;2.67;;
22470;SDS011;11402;51.374;6.594;2023-09-19T12:21:26;14.13;;;2.72;;
22470;SDS011;11402;51.374;6.594;2023-09-19T12:23:58;12.68;;;2.85;;
22470;SDS011;11402;51.374;6.594;2023-09-19T12:26:26;11.85;;;2.83;;
22470;SDS011;11402;51.374;6.594;2023-09-19T12:28:54;15.55;;;3.22;;
22470;SDS011;11402;51.374;6.594;2023-09-19T12:31:21;11.02;;;2.55;;
22470;SDS011;11402;51.374;6.594;2023-09-19T12:33:52;11.63;;;2.45;;
22470;SDS011;11402;51.374;6.594;2023-09-19T12:36:22;11.32;;;2.63;;
22470;SDS011;11402;51.374;6.594;2023-09-19T12:38:54;14.27;;;2.97;;
22470;SDS011;11402;51.374;6.594;2023-09-19T12:41:20;13.85;;;2.58;;
22470;SDS011;11402;51.374;6.594;2023-09-19T12:43:47;10.25;;;2.40;;
22470;SDS011;11402;51.374;6.594;2023-09-19T12:46:13;9.90;;;2.50;;
22470;SDS011;11402;51.374;6.594;2023-09-19T12:48:40;12.55;;;2.67;;
22470;SDS011;11402;51.374;6.594;2023-09-19T12:51:11;9.68;;;1.98;;
22470;SDS011;11402;51.374;6.594;2023-09-19T12:53:44;13.57;;;2.72;;
22470;SDS011;11402;51.374;6.594;2023-09-19T12:56:14;12.20;;;2.70;;
22470;SDS011;11402;51.374;6.594;2023-09-19T12:58:57;13.35;;;2.63;;
22470;SDS011;11402;51.374;6.594;2023-09-19T13:01:26;12.43;;;2.30;;
22470;SDS011;11402;51.374;6.594;2023-09-19T13:06:43;13.05;;;2.53;;
22470;SDS011;11402;51.374;6.594;2023-09-19T13:09:09;10.98;;;2.50;;
22470;SDS011;11402;51.374;6.594;2023-09-19T13:11:36;11.07;;;2.40;;
22470;SDS011;11402;51.374;6.594;2023-09-19T13:14:21;9.50;;;2.15;;
22470;SDS011;11402;51.374;6.594;2023-09-19T13:17:21;13.80;;;2.50;;
22470;SDS011;11402;51.374;6.594;2023-09-19T13:25:09;6.72;;;1.63;;
22470;SDS011;11402;51.374;6.594;2023-09-19T13:27:45;11.32;;;2.00;;
22470;SDS011;11402;51.374;6.594;2023-09-19T13:30:17;16.77;;;2.33;;
22470;SDS011;11402;51.374;6.594;2023-09-19T13:32:43;7.28;;;1.52;;
22470;SDS011;11402;51.374;6.594;2023-09-19T13:35:12;8.93;;;1.83;;
22470;SDS011;11402;51.374;6.594;2023-09-19T13:37:38;9.85;;;1.75;;
22470;SDS011;11402;51.374;6.594;2023-09-19T13:40:08;10.07;;;1.92;;
22470;SDS011;11402;51.374;6.594;2023-09-19T13:42:38;12.18;;;1.92;;
22470;SDS011;11402;51.374;6.594;2023-09-19T13:45:07;10.60;;;1.90;;
22470;SDS011;11402;51.374;6.594;2023-09-19T13:47:37;4.05;;;1.60;;
22470;SDS011;11402;51.374;6.594;2023-09-19T13:50:03;13.15;;;1.92;;
22470;SDS011;11402;51.374;6.594;2023-09-19T13:52:30;9.88;;;1.58;;
22470;SDS011;11402;51.374;6.594;2023-09-19T13:54:56;11.30;;;1.77;;
22470;SDS011;11402;51.374;6.594;2023-09-19T13:57:26;5.90;;;1.52;;
22470;SDS011;11402;51.374;6.594;2023-09-19T13:59:52;9.55;;;1.80;;
22470;SDS011;11402;51.374;6.594;2023-09-19T14:02:21;7.80;;;1.63;;
22470;SDS011;11402;51.374;6.594;2023-09-19T14:04:50;3.40;;;1.30;;
22470;SDS011;11402;51.374;6.594;2023-09-19T14:07:19;5.18;;;1.20;;
22470;SDS011;11402;51.374;6.594;2023-09-19T14:09:45;6.50;;;1.30;;
22470;SDS011;11402;51.374;6.594;2023-09-19T14:12:11;9.10;;;1.73;;
22470;SDS011;11402;51.374;6.594;2023-09-19T14:14:37;7.65;;;1.40;;
22470;SDS011;11402;51.374;6.594;2023-09-19T14:17:05;8.18;;;1.65;;
22470;SDS011;11402;51.374;6.594;2023-09-19T14:19:32;7.40;;;1.50;;
22470;SDS011;11402;51.374;6.594;2023-09-19T14:21:58;6.30;;;1.17;;
22470;SDS011;11402;51.374;6.594;2023-09-19T14:24:25;6.45;;;1.30;;
22470;SDS011;11402;51.374;6.594;2023-09-19T14:26:50;4.50;;;1.00;;
22470;SDS011;11402;51.374;6.594;2023-09-19T14:29:16;4.00;;;1.30;;
22470;SDS011;11402;51.374;6.594;2023-09-19T14:31:42;3.38;;;1.65;;
22470;SDS011;11402;51.374;6.594;2023-09-19T14:34:08;3.78;;;1.05;;
22470;SDS011;11402;51.374;6.594;2023-09-19T14:36:37;7.35;;;1.30;;
22470;SDS011;11402;51.374;6.594;2023-09-19T14:39:06;6.35;;;1.10;;
22470;SDS011;11402;51.374;6.594;2023-09-19T14:41:33;5.70;;;1.30;;
22470;SDS011;11402;51.374;6.594;2023-09-19T14:43:59;4.90;;;1.13;;
22470;SDS011;11402;51.374;6.594;2023-09-19T14:46:24;7.20;;;1.25;;
22470;SDS011;11402;51.374;6.594;2023-09-19T14:48:53;6.30;;;1.30;;
22470;SDS011;11402;51.374;6.594;2023-09-19T14:51:19;4.70;;;1.10;;
22470;SDS011;11402;51.374;6.594;2023-09-19T14:53:45;4.45;;;1.00;;
22470;SDS011;11402;51.374;6.594;2023-09-19T14:56:12;7.35;;;1.73;;
22470;SDS011;11402;51.374;6.594;2023-09-19T14:58:41;7.07;;;1.13;;
22470;SDS011;11402;51.374;6.594;2023-09-19T15:01:10;5.90;;;1.30;;
22470;SDS011;11402;51.374;6.594;2023-09-19T15:03:37;5.05;;;1.30;;
22470;SDS011;11402;51.374;6.594;2023-09-19T15:06:05;5.25;;;2.20;;
22470;SDS011;11402;51.374;6.594;2023-09-19T15:08:40;4.07;;;1.10;;
22470;SDS011;11402;51.374;6.594;2023-09-19T15:11:12;4.10;;;1.48;;
22470;SDS011;11402;51.374;6.594;2023-09-19T15:13:38;3.75;;;0.90;;
22470;SDS011;11402;51.374;6.594;2023-09-19T15:16:04;6.68;;;1.58;;
22470;SDS011;11402;51.374;6.594;2023-09-19T15:18:34;5.05;;;1.27;;
22470;SDS011;11402;51.374;6.594;2023-09-19T15:21:06;5.68;;;1.13;;
22470;SDS011;11402;51.374;6.594;2023-09-19T15:23:33;6.22;;;1.23;;
22470;SDS011;11402;51.374;6.594;2023-09-19T15:26:02;5.03;;;1.10;;
22470;SDS011;11402;51.374;6.594;2023-09-19T15:28:28;7.40;;;1.20;;
22470;SDS011;11402;51.374;6.594;2023-09-19T15:31:05;4.82;;;1.10;;
22470;SDS011;11402;51.374;6.594;2023-09-19T15:33:32;9.23;;;1.50;;
22470;SDS011;11402;51.374;6.594;2023-09-19T15:38:31;5.13;;;1.13;;
22470;SDS011;11402;51.374;6.594;2023-09-19T15:41:18;9.13;;;1.30;;
22470;SDS011;11402;51.374;6.594;2023-09-19T15:43:45;8.25;;;1.20;;
22470;SDS011;11402;51.374;6.594;2023-09-19T15:46:10;7.70;;;1.30;;
22470;SDS011;11402;51.374;6.594;2023-09-19T15:48:36;6.93;;;1.20;;